This is the latest recevied weather packets stored in our database for station/object SQ5OUZ-1. If no packets are shown the sender has not sent any weather packets the latest 1 day(s).
| Time | Temp. | Humidity | Pressure | Rain* | Wind** | Luminosity | Snow |
|---|---|---|---|---|---|---|---|
| 1778101730 | 18.33° C | 55% | 1007.8 hPa | - | - | - | - |
| 1778099019 | 18.89° C | 58% | 1008.1 hPa | - | - | - | - |
| 1778098116 | 19.44° C | 52% | 1008 hPa | - | - | - | - |
| 1778095405 | 21.11° C | 43% | 1007.4 hPa | - | - | - | - |
| 1778091792 | 21.67° C | 38% | 1007 hPa | - | - | - | - |
| 1778083978 | 24.44° C | 32% | 1006.5 hPa | - | - | - | - |
| 1778077655 | 25.56° C | 32% | 1006.9 hPa | - | - | - | - |
| 1778074945 | 26.67° C | 31% | 1006.9 hPa | - | - | - | - |
| 1778074042 | 26.67° C | 31% | 1006.9 hPa | - | - | - | - |
| 1778070429 | 26.67° C | 32% | 1007.1 hPa | - | - | - | - |
| 1778067719 | 26.11° C | 32% | 1007 hPa | - | - | - | - |
| 1778064106 | 27.22° C | 30% | 1006.6 hPa | - | - | - | - |
| 1778063203 | 27.78° C | 29% | 1006.6 hPa | - | - | - | - |
| 1778061396 | 27.78° C | 27% | 1006.6 hPa | - | - | - | - |
| 1778060492 | 28.89° C | 25% | 1006.6 hPa | - | - | - | - |
| 1778058685 | 30° C | 22% | 1006.6 hPa | - | - | - | - |
| 1778057782 | 30.56° C | 22% | 1006.5 hPa | - | - | - | - |
| 1778056879 | 30.56° C | 22% | 1006.6 hPa | - | - | - | - |
| 1778055072 | 29.44° C | 23% | 1006.5 hPa | - | - | - | - |
| 1778054169 | 31.11° C | 20% | 1006.4 hPa | - | - | - | - |
| 1778053266 | 31.11° C | 21% | 1006.5 hPa | - | - | - | - |
| 1778050556 | 29.44° C | 23% | 1006.8 hPa | - | - | - | - |
| 1778049653 | 25.56° C | 29% | 1006.9 hPa | - | - | - | - |
| 1778047846 | 25.56° C | 29% | 1006.9 hPa | - | - | - | - |
| 1778046943 | 22.22° C | 34% | 1006.8 hPa | - | - | - | - |
* Rain since midnight (hover to see other rain measurements)
** Current wind speed in m/s (hover to see current wind gust speed)